createdAt,value
2023-07-02T00:00:33.528Z,8.38
2023-07-02T00:03:02.890Z,8.43
2023-07-02T00:05:31.933Z,7.90
2023-07-02T00:08:02.100Z,8.50
2023-07-02T00:10:30.968Z,8.15
2023-07-02T00:12:59.685Z,8.57
2023-07-02T00:15:28.705Z,9.00
2023-07-02T00:17:58.447Z,8.63
2023-07-02T00:20:27.420Z,8.45
2023-07-02T00:22:57.443Z,8.38
2023-07-02T00:25:27.474Z,8.90
2023-07-02T00:27:56.196Z,8.55
2023-07-02T00:30:24.968Z,8.30
2023-07-02T00:32:53.727Z,8.35
2023-07-02T00:35:22.670Z,8.60
2023-07-02T00:37:51.842Z,8.80
2023-07-02T00:40:20.585Z,8.63
2023-07-02T00:42:50.709Z,8.15
2023-07-02T00:45:19.626Z,8.75
2023-07-02T00:47:48.302Z,8.27
2023-07-02T00:50:17.052Z,8.25
2023-07-02T00:52:45.765Z,8.30
2023-07-02T00:55:14.506Z,8.45
2023-07-02T00:57:47.707Z,8.80
2023-07-02T01:00:18.480Z,8.48
2023-07-02T01:02:58.473Z,8.48
2023-07-02T01:05:27.898Z,8.70
2023-07-02T01:07:56.798Z,8.35
2023-07-02T01:10:25.909Z,8.55
2023-07-02T01:12:54.938Z,9.02
2023-07-02T01:15:24.980Z,8.75
2023-07-02T01:17:54.246Z,8.98
2023-07-02T01:20:24.373Z,8.93
2023-07-02T01:22:53.636Z,9.13
2023-07-02T01:25:25.884Z,9.57
2023-07-02T01:27:56.768Z,9.00
2023-07-02T01:30:25.844Z,9.27
2023-07-02T01:32:54.865Z,8.93
2023-07-02T01:35:25.333Z,9.90
2023-07-02T01:37:54.777Z,9.88
2023-07-02T01:40:23.583Z,9.07
2023-07-02T01:42:52.445Z,8.82
2023-07-02T01:45:21.228Z,9.40
2023-07-02T01:47:50.040Z,9.65
2023-07-02T01:50:18.753Z,9.02
2023-07-02T01:52:48.849Z,9.55
2023-07-02T01:55:18.774Z,9.52
2023-07-02T01:57:47.660Z,9.55
2023-07-02T02:00:17.120Z,9.45
2023-07-02T02:02:46.277Z,9.55
2023-07-02T02:05:15.057Z,9.85
2023-07-02T02:07:43.917Z,9.90
2023-07-02T02:10:15.917Z,10.00
2023-07-02T02:12:44.946Z,10.10
2023-07-02T02:15:15.493Z,9.27
2023-07-02T02:17:44.300Z,9.38
2023-07-02T02:20:13.906Z,10.55
2023-07-02T02:22:42.630Z,9.00
2023-07-02T02:25:12.869Z,9.85
2023-07-02T02:27:41.567Z,10.07
2023-07-02T02:30:10.743Z,9.57
2023-07-02T02:32:39.603Z,9.85
2023-07-02T02:35:09.802Z,9.27
2023-07-02T02:37:40.630Z,9.07
2023-07-02T02:40:11.261Z,9.63
2023-07-02T02:42:41.418Z,9.02
2023-07-02T02:45:11.059Z,9.85
2023-07-02T02:47:39.862Z,8.82
2023-07-02T02:50:10.955Z,9.60
2023-07-02T02:52:39.727Z,9.85
2023-07-02T02:55:09.639Z,9.32
2023-07-02T02:57:38.429Z,9.25
2023-07-02T03:00:10.686Z,8.45
2023-07-02T03:02:40.208Z,9.02
2023-07-02T03:05:09.706Z,9.07
2023-07-02T03:07:38.466Z,8.80
2023-07-02T03:10:08.409Z,8.95
2023-07-02T03:12:37.079Z,9.48
2023-07-02T03:15:08.148Z,8.75
2023-07-02T03:17:36.854Z,8.77
2023-07-02T03:20:06.209Z,9.10
2023-07-02T03:22:34.884Z,8.80
2023-07-02T03:25:03.628Z,8.07
2023-07-02T03:27:32.380Z,8.90
2023-07-02T03:30:01.106Z,9.02
2023-07-02T03:32:31.192Z,8.05
2023-07-02T03:34:59.962Z,8.52
2023-07-02T03:37:28.648Z,8.48
2023-07-02T03:39:57.328Z,9.13
2023-07-02T03:42:26.008Z,8.52
2023-07-02T03:44:54.682Z,8.57
2023-07-02T03:47:23.426Z,8.55
2023-07-02T03:49:53.545Z,8.32
2023-07-02T03:52:22.306Z,8.23
2023-07-02T03:54:51.090Z,7.68
2023-07-02T03:57:19.739Z,8.77
2023-07-02T03:59:48.583Z,8.05
2023-07-02T04:02:17.364Z,8.80
2023-07-02T04:04:46.190Z,7.88
2023-07-02T04:07:17.070Z,8.07
2023-07-02T04:09:45.697Z,9.05
2023-07-02T04:12:14.462Z,8.43
2023-07-02T04:14:43.557Z,8.23
2023-07-02T04:17:12.164Z,8.27
2023-07-02T04:19:40.929Z,8.40
2023-07-02T04:22:09.644Z,8.27
2023-07-02T04:24:39.508Z,7.68
2023-07-02T04:27:32.128Z,7.95
2023-07-02T04:29:58.708Z,7.80
2023-07-02T04:32:27.159Z,7.40
2023-07-02T04:34:55.607Z,7.65
2023-07-02T04:37:24.292Z,7.60
2023-07-02T04:39:54.141Z,7.32
2023-07-02T04:42:22.629Z,7.43
2023-07-02T04:44:51.018Z,7.10
2023-07-02T04:47:19.529Z,7.65
2023-07-02T04:49:47.977Z,6.90
2023-07-02T04:52:16.446Z,7.55
2023-07-02T04:54:44.859Z,6.70
2023-07-02T04:57:15.915Z,6.80
2023-07-02T04:59:44.511Z,7.05
2023-07-02T05:02:12.999Z,6.65
2023-07-02T05:04:41.465Z,6.43
2023-07-02T05:07:09.894Z,6.60
2023-07-02T05:09:38.320Z,7.22
2023-07-02T05:12:07.311Z,6.85
2023-07-02T05:14:37.108Z,6.65
2023-07-02T05:17:06.325Z,6.72
2023-07-02T05:19:34.860Z,6.15
2023-07-02T05:22:03.341Z,6.25
2023-07-02T05:24:31.792Z,6.90
2023-07-02T05:27:00.242Z,6.57
2023-07-02T05:29:28.624Z,5.97
2023-07-02T05:31:58.497Z,6.75
2023-07-02T05:34:26.973Z,6.72
2023-07-02T05:36:56.138Z,6.40
2023-07-02T05:39:24.670Z,6.28
2023-07-02T05:41:53.141Z,6.18
2023-07-02T05:44:21.532Z,5.95
2023-07-02T05:46:50.070Z,6.10
2023-07-02T05:49:19.861Z,5.45
2023-07-02T05:51:48.325Z,6.47
2023-07-02T05:54:16.764Z,6.25
2023-07-02T05:56:45.221Z,5.65
2023-07-02T05:59:15.985Z,6.15
2023-07-02T06:01:46.018Z,6.10
2023-07-02T06:04:14.807Z,6.45
2023-07-02T06:06:44.843Z,6.40
2023-07-02T06:09:13.295Z,5.97
2023-07-02T06:11:41.730Z,5.93
2023-07-02T06:14:10.195Z,6.00
2023-07-02T06:16:38.737Z,6.18
2023-07-02T06:19:07.190Z,6.43
2023-07-02T06:21:35.605Z,5.88
2023-07-02T06:24:06.158Z,6.22
2023-07-02T06:26:34.636Z,6.20
2023-07-02T06:29:03.101Z,5.80
2023-07-02T06:31:31.585Z,5.00
2023-07-02T06:34:00.074Z,4.93
2023-07-02T06:36:28.541Z,5.30
2023-07-02T06:38:56.960Z,5.57
2023-07-02T06:41:26.740Z,5.32
2023-07-02T06:43:55.207Z,5.32
2023-07-02T06:46:23.754Z,5.15
2023-07-02T06:48:52.193Z,5.15
2023-07-02T06:51:22.139Z,4.22
2023-07-02T06:53:50.664Z,4.15
2023-07-02T06:56:19.076Z,4.15
2023-07-02T06:58:49.024Z,4.50
2023-07-02T07:01:17.525Z,4.63
2023-07-02T07:03:46.132Z,4.18
2023-07-02T07:06:14.599Z,4.20
2023-07-02T07:08:43.111Z,3.90
2023-07-02T07:11:11.629Z,3.80
2023-07-02T07:13:40.097Z,4.05
2023-07-02T07:16:09.928Z,3.88
2023-07-02T07:18:38.686Z,4.07
2023-07-02T07:21:07.169Z,3.75
2023-07-02T07:23:35.690Z,3.42
2023-07-02T07:26:04.177Z,3.40
2023-07-02T07:28:32.684Z,3.10
2023-07-02T07:31:01.103Z,3.20
2023-07-02T07:33:30.914Z,3.30
2023-07-02T07:35:59.509Z,3.50
2023-07-02T07:38:28.236Z,3.53
2023-07-02T07:40:56.704Z,4.05
2023-07-02T07:43:25.167Z,3.67
2023-07-02T07:45:53.758Z,4.03
2023-07-02T07:48:22.598Z,4.20
2023-07-02T07:50:52.432Z,3.55
2023-07-02T07:53:20.844Z,4.07
2023-07-02T07:55:49.306Z,4.40
2023-07-02T07:58:17.808Z,3.53
2023-07-02T08:00:46.305Z,3.50
2023-07-02T08:03:14.846Z,3.83
2023-07-02T08:05:43.484Z,3.60
2023-07-02T08:08:13.274Z,4.00
2023-07-02T08:10:41.689Z,4.18
2023-07-02T08:13:10.777Z,4.00
2023-07-02T08:15:40.364Z,3.90
2023-07-02T08:18:10.313Z,4.22
2023-07-02T08:20:38.810Z,4.47
2023-07-02T08:23:07.239Z,4.10
2023-07-02T08:25:37.143Z,4.47
2023-07-02T08:28:05.925Z,4.20
2023-07-02T08:30:34.378Z,4.28
2023-07-02T08:33:02.884Z,4.22
2023-07-02T08:35:31.632Z,4.70
2023-07-02T08:38:00.043Z,4.35
2023-07-02T08:40:29.807Z,4.13
2023-07-02T08:43:01.891Z,3.80
2023-07-02T08:45:30.981Z,3.97
2023-07-02T08:47:59.748Z,3.75
2023-07-02T08:50:28.171Z,3.58
2023-07-02T08:52:56.793Z,3.92
2023-07-02T08:55:25.348Z,3.95
2023-07-02T08:57:56.014Z,3.88
2023-07-02T09:00:26.024Z,3.42
2023-07-02T09:02:55.660Z,3.60
2023-07-02T09:05:24.266Z,3.40
2023-07-02T09:07:55.068Z,3.30
2023-07-02T09:10:31.861Z,3.88
2023-07-02T09:13:07.324Z,3.65
2023-07-02T09:15:41.311Z,3.15
2023-07-02T09:18:20.329Z,3.40
2023-07-02T09:20:49.145Z,3.28
2023-07-02T09:23:17.990Z,3.28
2023-07-02T09:25:46.549Z,3.30
2023-07-02T09:28:19.772Z,3.40
2023-07-02T09:30:56.748Z,3.55
2023-07-02T09:33:26.421Z,3.40
2023-07-02T09:35:55.219Z,3.60
2023-07-02T09:38:23.834Z,3.33
2023-07-02T09:40:53.811Z,3.17
2023-07-02T09:43:23.037Z,3.58
2023-07-02T09:45:53.337Z,3.30
2023-07-02T09:48:25.253Z,3.30
2023-07-02T09:50:53.713Z,3.50
2023-07-02T09:53:22.216Z,3.22
2023-07-02T09:55:50.621Z,3.63
2023-07-02T09:58:19.119Z,3.40
2023-07-02T10:00:48.284Z,3.30
2023-07-02T10:03:17.141Z,3.30
2023-07-02T10:05:47.173Z,3.22
2023-07-02T10:08:18.279Z,3.50
2023-07-02T10:10:46.960Z,3.60
2023-07-02T10:13:15.682Z,3.30
2023-07-02T10:15:44.144Z,4.85
2023-07-02T10:18:12.645Z,4.35
2023-07-02T10:20:42.558Z,5.70
2023-07-02T10:23:12.385Z,5.38
2023-07-02T10:25:42.701Z,5.20
2023-07-02T10:28:17.273Z,5.47
2023-07-02T10:30:46.051Z,5.10
2023-07-02T10:33:15.494Z,4.88
2023-07-02T10:35:46.176Z,5.25
2023-07-02T10:38:18.088Z,4.80
2023-07-02T10:40:46.841Z,4.68
2023-07-02T10:43:15.633Z,5.00
2023-07-02T10:45:44.116Z,5.10
2023-07-02T10:48:12.725Z,4.70
2023-07-02T10:50:41.298Z,5.03
2023-07-02T10:53:18.601Z,4.40
2023-07-02T10:55:47.575Z,3.88
2023-07-02T10:58:16.821Z,4.28
2023-07-02T11:00:48.757Z,4.50
2023-07-02T11:03:21.083Z,4.60
2023-07-02T11:05:50.319Z,4.43
2023-07-02T11:08:21.061Z,4.05
2023-07-02T11:10:49.580Z,4.53
2023-07-02T11:13:18.883Z,4.47
2023-07-02T11:15:48.512Z,3.92
2023-07-02T11:18:19.355Z,4.00
2023-07-02T11:20:48.552Z,4.18
2023-07-02T11:23:23.192Z,3.88
2023-07-02T11:25:59.491Z,3.97
2023-07-02T11:28:28.482Z,3.85
2023-07-02T11:30:57.316Z,4.30
2023-07-02T11:33:36.704Z,3.88
2023-07-02T11:36:05.960Z,4.30
2023-07-02T11:38:36.717Z,3.80
2023-07-02T11:41:05.650Z,4.25
2023-07-02T11:43:35.357Z,3.90
2023-07-02T11:46:04.033Z,3.90
2023-07-02T11:48:32.503Z,4.05
2023-07-02T11:51:01.010Z,3.60
2023-07-02T11:53:29.521Z,3.92
2023-07-02T11:55:59.401Z,4.00
2023-07-02T11:58:27.893Z,3.92
2023-07-02T12:00:56.596Z,3.90
2023-07-02T12:03:25.032Z,3.80
2023-07-02T12:05:53.703Z,3.25
2023-07-02T12:08:22.140Z,3.88
2023-07-02T12:10:50.683Z,3.85
2023-07-02T12:13:22.056Z,3.50
2023-07-02T12:15:51.258Z,3.60
2023-07-02T12:18:19.849Z,3.45
2023-07-02T12:20:48.410Z,3.50
2023-07-02T12:23:17.018Z,3.35
2023-07-02T12:25:45.484Z,2.78
2023-07-02T12:28:14.021Z,3.22
2023-07-02T12:30:44.014Z,2.90
2023-07-02T12:33:12.630Z,2.80
2023-07-02T12:35:41.147Z,2.50
2023-07-02T12:38:10.083Z,2.15
2023-07-02T12:40:39.766Z,2.55
2023-07-02T12:43:08.310Z,2.40
2023-07-02T12:45:36.827Z,2.10
2023-07-02T12:48:07.331Z,2.40
2023-07-02T12:50:35.804Z,1.70
2023-07-02T12:53:04.304Z,2.00
2023-07-02T12:55:32.971Z,2.22
2023-07-02T12:58:01.444Z,1.88
2023-07-02T13:00:29.858Z,2.00
2023-07-02T13:03:04.353Z,2.42
2023-07-02T13:05:35.741Z,1.95
2023-07-02T13:08:04.516Z,2.13
2023-07-02T13:10:32.956Z,1.70
2023-07-02T13:13:09.973Z,1.80
2023-07-02T13:15:42.730Z,1.60
2023-07-02T13:18:11.150Z,1.83
2023-07-02T13:20:40.959Z,1.80
2023-07-02T13:23:09.379Z,2.10
2023-07-02T13:25:37.961Z,1.65
2023-07-02T13:28:06.713Z,1.80
2023-07-02T13:30:35.137Z,1.90
2023-07-02T13:33:03.610Z,2.03
2023-07-02T13:35:32.667Z,2.30
2023-07-02T13:38:02.570Z,2.25
2023-07-02T13:40:30.992Z,2.20
2023-07-02T13:42:59.522Z,2.10
2023-07-02T13:45:27.979Z,1.92
2023-07-02T13:47:57.704Z,2.50
2023-07-02T13:50:26.152Z,2.10
2023-07-02T13:52:54.593Z,2.10
2023-07-02T13:55:28.718Z,2.53
2023-07-02T13:57:58.369Z,2.20
2023-07-02T14:00:28.456Z,2.10
2023-07-02T14:02:57.137Z,2.45
2023-07-02T14:05:25.913Z,2.30
2023-07-02T14:07:54.486Z,2.30
2023-07-02T14:10:23.305Z,2.30
2023-07-02T14:12:51.930Z,2.40
2023-07-02T14:15:20.552Z,2.28
2023-07-02T14:17:50.456Z,2.60
2023-07-02T14:20:19.161Z,2.45
2023-07-02T14:22:49.046Z,2.30
2023-07-02T14:25:24.997Z,2.30
2023-07-02T14:28:00.998Z,1.90
2023-07-02T14:30:29.514Z,1.98
2023-07-02T14:32:59.380Z,2.08
2023-07-02T14:35:29.262Z,2.20
2023-07-02T14:37:57.786Z,2.20
2023-07-02T14:40:26.378Z,2.30
2023-07-02T14:42:54.965Z,2.10
2023-07-02T14:45:23.472Z,2.10
2023-07-02T14:47:52.083Z,2.08
2023-07-02T14:50:21.861Z,2.10
2023-07-02T14:52:50.394Z,2.08
2023-07-02T14:55:18.961Z,2.28
2023-07-02T14:57:47.494Z,1.95
2023-07-02T15:00:17.092Z,2.30
2023-07-02T15:02:45.697Z,2.10
2023-07-02T15:05:14.840Z,2.28
2023-07-02T15:07:44.730Z,1.92
2023-07-02T15:10:13.251Z,1.95
2023-07-02T15:12:41.741Z,2.30
2023-07-02T15:15:11.021Z,2.20
2023-07-02T15:17:39.656Z,2.30
2023-07-02T15:20:09.343Z,2.40
2023-07-02T15:22:38.215Z,2.17
2023-07-02T15:25:09.268Z,2.03
2023-07-02T15:27:37.888Z,2.10
2023-07-02T15:30:08.511Z,2.22
2023-07-02T15:32:36.981Z,2.20
2023-07-02T15:35:06.532Z,2.13
2023-07-02T15:37:35.025Z,2.10
2023-07-02T15:40:03.499Z,2.20
2023-07-02T15:42:34.091Z,2.47
2023-07-02T15:45:03.035Z,2.10
2023-07-02T15:47:32.312Z,2.20
2023-07-02T15:50:02.308Z,2.28
2023-07-02T15:52:30.906Z,2.10
2023-07-02T15:54:59.457Z,1.90
2023-07-02T15:57:28.120Z,2.63
2023-07-02T15:59:57.917Z,2.00
2023-07-02T16:02:26.653Z,2.03
2023-07-02T16:04:55.232Z,2.28
2023-07-02T16:07:25.136Z,2.20
2023-07-02T16:09:53.567Z,2.40
2023-07-02T16:12:22.220Z,2.30
2023-07-02T16:14:50.764Z,2.10
2023-07-02T16:17:20.624Z,2.38
2023-07-02T16:19:49.121Z,2.08
2023-07-02T16:22:18.122Z,2.20
2023-07-02T16:24:46.891Z,2.00
2023-07-02T16:27:15.800Z,2.03
2023-07-02T16:29:46.017Z,2.10
2023-07-02T16:32:15.101Z,2.28
2023-07-02T16:34:46.284Z,2.50
2023-07-02T16:37:14.811Z,2.22
2023-07-02T16:39:43.384Z,2.15
2023-07-02T16:42:13.504Z,2.40
2023-07-02T16:44:42.166Z,2.35
2023-07-02T16:47:10.593Z,2.45
2023-07-02T16:49:39.190Z,2.30
2023-07-02T16:52:09.985Z,2.30
2023-07-02T16:54:39.731Z,2.13
2023-07-02T16:57:08.876Z,2.47
2023-07-02T16:59:38.948Z,2.45
2023-07-02T17:02:09.706Z,2.45
2023-07-02T17:04:38.448Z,2.30
2023-07-02T17:07:09.835Z,2.67
2023-07-02T17:09:41.283Z,2.60
2023-07-02T17:12:13.141Z,2.20
2023-07-02T17:14:41.720Z,2.60
2023-07-02T17:17:11.709Z,2.20
2023-07-02T17:19:41.693Z,2.30
2023-07-02T17:22:13.758Z,2.50
2023-07-02T17:24:44.430Z,2.30
2023-07-02T17:27:14.047Z,2.15
2023-07-02T17:29:42.928Z,2.35
2023-07-02T17:32:12.083Z,2.40
2023-07-02T17:34:40.574Z,2.38
2023-07-02T17:37:11.291Z,2.40
2023-07-02T17:39:39.834Z,2.60
2023-07-02T17:42:09.282Z,2.45
2023-07-02T17:44:39.407Z,2.67
2023-07-02T17:47:09.868Z,2.38
2023-07-02T17:49:39.928Z,2.40
2023-07-02T17:52:12.105Z,2.45
2023-07-02T17:54:42.265Z,2.42
2023-07-02T17:57:11.473Z,2.40
2023-07-02T17:59:39.930Z,2.28
2023-07-02T18:02:09.540Z,2.38
2023-07-02T18:04:38.945Z,2.40
2023-07-02T18:07:11.685Z,2.13
2023-07-02T18:09:41.252Z,2.60
2023-07-02T18:12:11.027Z,2.30
2023-07-02T18:14:42.182Z,2.45
2023-07-02T18:17:10.790Z,2.45
2023-07-02T18:19:39.446Z,2.40
2023-07-02T18:22:08.132Z,2.30
2023-07-02T18:24:39.576Z,2.47
2023-07-02T18:27:09.062Z,2.35
2023-07-02T18:29:38.742Z,2.25
2023-07-02T18:32:09.830Z,2.50
2023-07-02T18:34:40.635Z,2.40
2023-07-02T18:37:11.096Z,2.50
2023-07-02T18:39:43.878Z,2.60
2023-07-02T18:42:12.648Z,2.60
2023-07-02T18:44:41.589Z,2.50
2023-07-02T18:47:11.735Z,2.70
2023-07-02T18:49:40.474Z,2.58
2023-07-02T18:52:11.459Z,2.97
2023-07-02T18:54:41.630Z,2.80
2023-07-02T18:57:11.245Z,2.80
2023-07-02T18:59:39.913Z,2.50
2023-07-02T19:02:11.050Z,2.45
2023-07-02T19:04:39.675Z,2.80
2023-07-02T19:07:08.153Z,2.30
2023-07-02T19:09:37.326Z,2.55
2023-07-02T19:12:09.157Z,2.60
2023-07-02T19:14:39.380Z,2.55
2023-07-02T19:17:08.882Z,2.55
2023-07-02T19:19:38.647Z,2.80
2023-07-02T19:22:07.696Z,2.92
2023-07-02T19:24:36.154Z,2.50
2023-07-02T19:27:07.741Z,2.20
2023-07-02T19:29:37.126Z,2.33
2023-07-02T19:32:06.437Z,2.83
2023-07-02T19:34:36.129Z,2.50
2023-07-02T19:37:06.327Z,2.70
2023-07-02T19:39:35.148Z,2.50
2023-07-02T19:42:03.668Z,2.50
2023-07-02T19:44:33.591Z,2.72
2023-07-02T19:47:02.109Z,2.75
2023-07-02T19:49:31.286Z,2.80
2023-07-02T19:51:59.734Z,2.90
2023-07-02T19:54:28.419Z,2.95
2023-07-02T19:56:59.345Z,2.78
2023-07-02T19:59:28.668Z,3.00
2023-07-02T20:01:58.435Z,3.20
2023-07-02T20:04:30.858Z,3.50
2023-07-02T20:06:59.542Z,3.15
2023-07-02T20:09:28.111Z,2.72
2023-07-02T20:11:56.651Z,3.17
2023-07-02T20:14:25.158Z,2.85
2023-07-02T20:16:53.749Z,3.20
2023-07-02T20:19:23.613Z,2.90
2023-07-02T20:21:56.006Z,3.20
2023-07-02T20:24:24.605Z,3.00
2023-07-02T20:26:53.582Z,2.97
2023-07-02T20:29:22.023Z,3.00
2023-07-02T20:31:51.501Z,3.00
2023-07-02T20:34:21.630Z,2.95
2023-07-02T20:36:54.942Z,3.10
2023-07-02T20:39:24.671Z,3.15
2023-07-02T20:41:55.669Z,3.17
2023-07-02T20:44:24.190Z,3.25
2023-07-02T20:46:52.678Z,3.67
2023-07-02T20:49:22.332Z,3.00
2023-07-02T20:51:52.295Z,3.28
2023-07-02T20:54:21.001Z,3.15
2023-07-02T20:56:50.130Z,3.80
2023-07-02T20:59:18.586Z,3.22
2023-07-02T21:01:47.120Z,3.33
2023-07-02T21:04:15.776Z,3.65
2023-07-02T21:06:44.224Z,3.65
2023-07-02T21:09:16.141Z,3.50
2023-07-02T21:11:45.180Z,4.40
2023-07-02T21:14:13.677Z,4.00
2023-07-02T21:16:42.102Z,3.47
2023-07-02T21:19:10.558Z,3.53
2023-07-02T21:21:40.328Z,3.40
2023-07-02T21:24:09.216Z,3.70
2023-07-02T21:26:38.980Z,3.67
2023-07-02T21:29:07.530Z,4.10
2023-07-02T21:31:36.214Z,3.58
2023-07-02T21:34:04.841Z,3.88
2023-07-02T21:36:33.393Z,3.85
2023-07-02T21:39:01.919Z,3.90
2023-07-02T21:41:30.432Z,3.85
2023-07-02T21:44:00.440Z,3.80
2023-07-02T21:46:29.034Z,4.20
2023-07-02T21:48:57.452Z,3.67
2023-07-02T21:51:26.012Z,3.75
2023-07-02T21:53:54.455Z,4.18
2023-07-02T21:56:22.943Z,3.80
2023-07-02T21:58:51.436Z,4.10
2023-07-02T22:01:21.309Z,3.80
2023-07-02T22:03:50.078Z,3.63
2023-07-02T22:06:19.221Z,3.63
2023-07-02T22:08:47.735Z,3.95
2023-07-02T22:11:22.447Z,3.90
2023-07-02T22:13:52.189Z,3.70
2023-07-02T22:16:22.093Z,4.15
2023-07-02T22:18:52.271Z,3.75
2023-07-02T22:21:20.704Z,3.85
2023-07-02T22:23:49.412Z,3.65
2023-07-02T22:26:17.996Z,4.03
2023-07-02T22:28:47.589Z,3.53
2023-07-02T22:31:16.099Z,3.75
2023-07-02T22:33:45.945Z,4.18
2023-07-02T22:36:14.618Z,4.20
2023-07-02T22:38:43.105Z,4.05
2023-07-02T22:41:11.542Z,3.92
2023-07-02T22:43:40.003Z,3.75
2023-07-02T22:46:08.584Z,3.63
2023-07-02T22:48:37.454Z,3.72
2023-07-02T22:51:07.290Z,4.22
2023-07-02T22:53:35.738Z,3.92
2023-07-02T22:56:11.542Z,4.13
2023-07-02T22:58:39.997Z,3.63
2023-07-02T23:01:08.987Z,3.90
2023-07-02T23:03:37.772Z,4.20
2023-07-02T23:06:07.969Z,3.75
2023-07-02T23:08:36.411Z,3.92
2023-07-02T23:11:04.890Z,3.85
2023-07-02T23:13:33.533Z,3.80
2023-07-02T23:16:03.812Z,4.00
2023-07-02T23:18:35.526Z,4.10
2023-07-02T23:21:06.470Z,3.83
2023-07-02T23:23:36.394Z,4.10
2023-07-02T23:26:04.859Z,3.85
2023-07-02T23:28:35.068Z,4.03
2023-07-02T23:31:05.948Z,3.75
2023-07-02T23:33:34.632Z,4.28
2023-07-02T23:36:03.450Z,3.63
2023-07-02T23:38:32.115Z,3.65
2023-07-02T23:41:02.055Z,3.90
2023-07-02T23:43:30.533Z,3.88
2023-07-02T23:45:59.038Z,3.78
2023-07-02T23:48:27.517Z,3.95
2023-07-02T23:50:56.006Z,3.95
2023-07-02T23:53:24.383Z,3.70
2023-07-02T23:55:53.210Z,3.70
2023-07-02T23:58:23.145Z,3.75
